createdAt,value
2018-04-15T00:01:15.665Z,12.80
2018-04-15T00:03:43.218Z,12.80
2018-04-15T00:06:10.762Z,12.80
2018-04-15T00:08:39.082Z,12.70
2018-04-15T00:11:06.667Z,12.70
2018-04-15T00:13:34.246Z,12.70
2018-04-15T00:16:02.572Z,12.70
2018-04-15T00:18:30.103Z,12.70
2018-04-15T00:20:57.656Z,12.80
2018-04-15T00:23:25.981Z,12.80
2018-04-15T00:25:53.556Z,12.70
2018-04-15T00:28:21.123Z,12.80
2018-04-15T00:30:48.683Z,12.70
2018-04-15T00:33:16.272Z,12.70
2018-04-15T00:35:44.570Z,12.80
2018-04-15T00:38:12.128Z,12.80
2018-04-15T00:40:39.666Z,12.80
2018-04-15T00:43:07.988Z,12.50
2018-04-15T00:45:35.539Z,12.50
2018-04-15T00:48:03.082Z,12.40
2018-04-15T00:50:30.664Z,12.30
2018-04-15T00:52:58.224Z,12.30
2018-04-15T00:55:25.790Z,12.30
2018-04-15T00:57:53.315Z,12.30
2018-04-15T01:00:20.875Z,12.30
2018-04-15T01:02:48.420Z,12.30
2018-04-15T01:05:16.742Z,12.20
2018-04-15T01:07:44.314Z,12.20
2018-04-15T01:10:11.866Z,12.20
2018-04-15T01:12:39.426Z,12.20
2018-04-15T01:15:06.983Z,12.20
2018-04-15T01:17:34.530Z,12.10
2018-04-15T01:20:02.101Z,12.10
2018-04-15T01:22:29.652Z,12.10
2018-04-15T01:24:57.184Z,12.10
2018-04-15T01:27:24.766Z,12.10
2018-04-15T01:29:52.337Z,12.00
2018-04-15T01:32:19.927Z,12.00
2018-04-15T01:34:47.489Z,12.00
2018-04-15T01:37:15.016Z,12.00
2018-04-15T01:39:42.593Z,12.10
2018-04-15T01:42:10.171Z,12.10
2018-04-15T01:44:38.509Z,12.00
2018-04-15T01:47:06.069Z,12.00
2018-04-15T01:49:33.629Z,11.90
2018-04-15T01:52:01.186Z,11.90
2018-04-15T01:54:28.711Z,11.90
2018-04-15T01:56:56.268Z,11.90
2018-04-15T01:59:23.812Z,12.00
2018-04-15T02:01:52.144Z,11.80
2018-04-15T02:04:19.698Z,11.80
2018-04-15T02:06:47.245Z,11.80
2018-04-15T02:09:14.800Z,11.80
2018-04-15T02:11:42.341Z,11.80
2018-04-15T02:14:09.932Z,11.90
2018-04-15T02:16:37.481Z,11.80
2018-04-15T02:19:05.028Z,11.80
2018-04-15T02:21:32.590Z,11.90
2018-04-15T02:24:00.137Z,11.90
2018-04-15T02:26:27.717Z,11.90
2018-04-15T02:28:55.273Z,11.80
2018-04-15T02:31:22.822Z,11.90
2018-04-15T02:33:50.384Z,11.90
2018-04-15T02:36:17.912Z,11.90
2018-04-15T02:38:46.251Z,11.80
2018-04-15T02:41:13.813Z,11.80
2018-04-15T02:43:41.366Z,11.80
2018-04-15T02:46:08.934Z,11.90
2018-04-15T02:48:36.486Z,11.80
2018-04-15T02:51:04.050Z,11.80
2018-04-15T02:53:31.598Z,11.80
2018-04-15T02:55:59.153Z,11.80
2018-04-15T02:58:26.728Z,11.80
2018-04-15T03:00:54.256Z,11.90
2018-04-15T03:03:21.814Z,11.90
2018-04-15T03:05:49.372Z,11.90
2018-04-15T03:08:16.961Z,11.90
2018-04-15T03:10:44.512Z,11.90
2018-04-15T03:13:12.076Z,11.90
2018-04-15T03:15:39.635Z,11.90
2018-04-15T03:18:07.945Z,12.00
2018-04-15T03:20:35.519Z,11.90
2018-04-15T03:23:03.837Z,12.00
2018-04-15T03:25:31.372Z,12.00
2018-04-15T03:27:58.935Z,12.00
2018-04-15T03:30:26.496Z,12.00
2018-04-15T03:32:54.057Z,12.00
2018-04-15T03:35:21.602Z,12.00
2018-04-15T03:37:49.940Z,12.00
2018-04-15T03:40:17.479Z,12.00
2018-04-15T03:42:45.052Z,12.00
2018-04-15T03:45:12.601Z,12.00
2018-04-15T03:47:40.934Z,12.10
2018-04-15T03:50:08.482Z,12.10
2018-04-15T03:52:36.824Z,12.10
2018-04-15T03:55:04.396Z,12.10
2018-04-15T03:57:31.980Z,12.10
2018-04-15T04:00:00.308Z,12.10
2018-04-15T04:02:27.860Z,12.10
2018-04-15T04:04:55.424Z,12.10
2018-04-15T04:07:22.966Z,12.10
2018-04-15T04:09:50.511Z,12.10
2018-04-15T04:12:18.058Z,12.10
2018-04-15T04:14:46.382Z,12.10
2018-04-15T04:17:13.921Z,12.10
2018-04-15T04:19:53.440Z,12.20
2018-04-15T04:22:33.583Z,12.20
2018-04-15T04:28:06.613Z,12.20
2018-04-15T04:30:34.172Z,12.30
2018-04-15T04:33:01.720Z,12.30
2018-04-15T04:35:30.030Z,12.30
2018-04-15T04:37:57.599Z,12.30
2018-04-15T04:40:25.152Z,12.30
2018-04-15T04:42:52.713Z,12.30
2018-04-15T04:45:20.253Z,12.30
2018-04-15T04:47:47.799Z,12.30
2018-04-15T04:50:15.360Z,12.20
2018-04-15T04:52:42.932Z,12.20
2018-04-15T04:55:10.461Z,12.20
2018-04-15T04:57:38.769Z,12.30
2018-04-15T05:00:06.300Z,12.20
2018-04-15T05:02:34.639Z,12.20
2018-04-15T05:05:02.185Z,12.20
2018-04-15T05:07:29.741Z,12.30
2018-04-15T05:09:57.285Z,12.20
2018-04-15T05:12:24.863Z,12.20
2018-04-15T05:14:52.433Z,12.20
2018-04-15T05:17:19.996Z,12.20
2018-04-15T05:19:47.540Z,12.20
2018-04-15T05:22:15.096Z,12.20
2018-04-15T05:24:42.651Z,12.20
2018-04-15T05:27:10.182Z,12.30
2018-04-15T05:29:37.744Z,12.30
2018-04-15T05:32:05.300Z,12.30
2018-04-15T05:34:32.854Z,12.30
2018-04-15T05:37:01.177Z,12.20
2018-04-15T05:39:28.732Z,12.20
2018-04-15T05:41:56.278Z,12.20
2018-04-15T05:44:23.834Z,12.20
2018-04-15T05:46:51.364Z,12.20
2018-04-15T05:49:19.692Z,12.20
2018-04-15T05:51:47.252Z,12.20
2018-04-15T05:54:14.806Z,12.20
2018-04-15T05:56:42.359Z,12.20
2018-04-15T05:59:09.917Z,12.20
2018-04-15T06:01:37.451Z,12.20
2018-04-15T06:04:04.993Z,12.30
2018-04-15T06:06:33.280Z,12.30
2018-04-15T06:09:00.850Z,12.30
2018-04-15T06:11:28.409Z,12.30
2018-04-15T06:13:55.956Z,12.30
2018-04-15T06:16:23.485Z,12.30
2018-04-15T06:18:51.044Z,12.30
2018-04-15T06:21:18.568Z,12.30
2018-04-15T06:23:46.105Z,12.30
2018-04-15T06:26:13.632Z,12.30
2018-04-15T06:28:41.954Z,12.30
2018-04-15T06:31:09.489Z,12.30
2018-04-15T06:33:37.054Z,12.30
2018-04-15T06:36:04.589Z,12.40
2018-04-15T06:38:32.906Z,12.40
2018-04-15T06:41:00.439Z,12.40
2018-04-15T06:43:28.012Z,12.40
2018-04-15T06:45:55.559Z,12.40
2018-04-15T06:48:23.127Z,12.50
2018-04-15T06:50:50.666Z,12.50
2018-04-15T06:53:19.009Z,12.50
2018-04-15T06:55:46.589Z,12.40
2018-04-15T06:58:14.904Z,12.50
2018-04-15T07:00:42.449Z,12.40
2018-04-15T07:03:10.024Z,12.50
2018-04-15T07:05:37.578Z,12.50
2018-04-15T07:08:05.126Z,12.50
2018-04-15T07:10:33.640Z,12.50
2018-04-15T07:13:01.187Z,12.40
2018-04-15T07:15:28.721Z,12.50
2018-04-15T07:17:57.068Z,12.50
2018-04-15T07:20:24.610Z,12.50
2018-04-15T07:22:52.162Z,12.50
2018-04-15T07:25:19.721Z,12.50
2018-04-15T07:27:47.282Z,12.50
2018-04-15T07:30:14.807Z,12.50
2018-04-15T07:32:42.344Z,12.50
2018-04-15T07:35:10.641Z,12.60
2018-04-15T07:37:38.197Z,12.60
2018-04-15T07:40:05.752Z,12.60
2018-04-15T07:42:33.302Z,12.60
2018-04-15T07:45:01.610Z,12.60
2018-04-15T07:47:29.155Z,12.60
2018-04-15T07:49:56.687Z,12.60
2018-04-15T07:52:24.979Z,12.60
2018-04-15T07:54:52.524Z,12.60
2018-04-15T07:57:20.829Z,12.60
2018-04-15T07:59:48.389Z,12.70
2018-04-15T08:02:15.932Z,12.70
2018-04-15T08:04:43.514Z,12.70
2018-04-15T08:07:11.050Z,12.70
2018-04-15T08:09:39.370Z,12.70
2018-04-15T08:12:06.948Z,12.70
2018-04-15T08:14:34.521Z,12.70
2018-04-15T08:17:02.051Z,12.70
2018-04-15T08:19:29.606Z,12.80
2018-04-15T08:21:57.130Z,12.80
2018-04-15T08:24:24.693Z,12.80
2018-04-15T08:26:52.244Z,12.80
2018-04-15T08:29:19.809Z,12.80
2018-04-15T08:31:47.366Z,12.90
2018-04-15T08:34:14.907Z,12.90
2018-04-15T08:36:43.265Z,12.90
2018-04-15T08:39:10.812Z,12.90
2018-04-15T08:41:38.364Z,13.00
2018-04-15T08:44:05.918Z,13.00
2018-04-15T08:46:34.251Z,13.10
2018-04-15T08:49:01.817Z,13.10
2018-04-15T08:51:29.364Z,13.20
2018-04-15T08:53:57.673Z,13.20
2018-04-15T08:56:25.209Z,13.20
2018-04-15T08:58:52.750Z,13.20
2018-04-15T09:01:21.043Z,13.20
2018-04-15T09:03:48.602Z,13.20
2018-04-15T09:06:16.154Z,13.20
2018-04-15T09:08:44.474Z,13.20
2018-04-15T09:11:12.000Z,13.30
2018-04-15T09:13:39.547Z,13.30
2018-04-15T09:16:07.850Z,13.40
2018-04-15T09:18:35.405Z,13.30
2018-04-15T09:21:02.933Z,13.40
2018-04-15T09:23:31.258Z,13.40
2018-04-15T09:25:58.815Z,13.40
2018-04-15T09:28:26.374Z,13.40
2018-04-15T09:30:59.619Z,13.40
2018-04-15T09:33:27.927Z,13.50
2018-04-15T09:35:55.462Z,13.50
2018-04-15T09:38:23.802Z,13.60
2018-04-15T09:40:52.123Z,13.90
2018-04-15T09:43:20.470Z,14.20
2018-04-15T09:45:47.999Z,14.20
2018-04-15T09:48:15.554Z,14.60
2018-04-15T09:50:43.094Z,14.90
2018-04-15T09:53:10.640Z,15.20
2018-04-15T09:55:38.942Z,15.60
2018-04-15T09:58:06.485Z,15.60
2018-04-15T10:00:34.029Z,15.90
2018-04-15T10:03:02.354Z,16.20
2018-04-15T10:05:29.914Z,16.20
2018-04-15T10:07:57.467Z,16.40
2018-04-15T10:10:25.020Z,16.60
2018-04-15T10:12:52.577Z,16.60
2018-04-15T10:15:20.118Z,16.70
2018-04-15T10:17:47.691Z,16.70
2018-04-15T10:20:15.232Z,16.70
2018-04-15T10:22:42.789Z,16.70
2018-04-15T10:25:11.091Z,16.50
2018-04-15T10:27:38.645Z,16.50
2018-04-15T10:30:06.171Z,16.40
2018-04-15T10:32:34.491Z,16.10
2018-04-15T10:35:02.031Z,16.10
2018-04-15T10:37:29.597Z,16.00
2018-04-15T10:39:57.168Z,15.90
2018-04-15T10:42:24.718Z,15.90
2018-04-15T10:44:52.304Z,15.90
2018-04-15T10:47:19.854Z,15.90
2018-04-15T10:49:47.418Z,16.00
2018-04-15T10:52:14.953Z,16.10
2018-04-15T10:54:42.534Z,16.30
2018-04-15T10:57:10.088Z,16.50
2018-04-15T10:59:37.656Z,16.60
2018-04-15T11:02:05.186Z,16.80
2018-04-15T11:04:32.748Z,16.90
2018-04-15T11:07:00.288Z,16.90
2018-04-15T11:09:28.612Z,17.00
2018-04-15T11:11:56.159Z,17.00
2018-04-15T11:14:23.715Z,17.10
2018-04-15T11:16:51.246Z,17.30
2018-04-15T11:19:19.580Z,17.40
2018-04-15T11:21:47.115Z,17.40
2018-04-15T11:24:14.656Z,17.30
2018-04-15T11:26:42.188Z,17.20
2018-04-15T11:29:10.503Z,16.90
2018-04-15T11:31:38.057Z,16.90
2018-04-15T11:34:05.617Z,16.80
2018-04-15T11:36:33.168Z,16.90
2018-04-15T11:39:00.735Z,17.00
2018-04-15T11:41:28.275Z,17.20
2018-04-15T11:43:56.594Z,17.50
2018-04-15T11:46:24.119Z,17.50
2018-04-15T11:48:51.686Z,17.50
2018-04-15T11:51:19.208Z,17.50
2018-04-15T11:53:46.758Z,17.50
2018-04-15T11:56:14.288Z,17.60
2018-04-15T11:58:42.618Z,17.90
2018-04-15T12:01:10.953Z,18.00
2018-04-15T12:03:38.502Z,18.00
2018-04-15T12:06:06.077Z,18.00
2018-04-15T12:08:33.650Z,18.10
2018-04-15T12:13:35.223Z,18.30
2018-04-15T12:16:02.780Z,18.10
2018-04-15T12:18:31.287Z,18.00
2018-04-15T12:20:58.871Z,17.80
2018-04-15T12:23:26.420Z,17.60
2018-04-15T12:25:53.979Z,17.50
2018-04-15T12:28:21.525Z,17.30
2018-04-15T12:30:49.828Z,17.20
2018-04-15T12:33:17.395Z,17.20
2018-04-15T12:35:45.003Z,17.10
2018-04-15T12:38:12.500Z,17.00
2018-04-15T12:40:40.039Z,17.00
2018-04-15T14:47:21.372Z,17.90
2018-04-15T14:49:49.928Z,17.90
2018-04-15T14:52:18.107Z,17.90
2018-04-15T14:54:46.276Z,17.90
2018-04-15T14:57:14.622Z,17.90
2018-04-15T14:59:42.493Z,17.80
2018-04-15T15:02:10.722Z,17.80
2018-04-15T15:04:40.043Z,17.80
2018-04-15T15:07:09.285Z,17.80
2018-04-15T15:09:37.445Z,17.80
2018-04-15T15:12:05.777Z,17.70
2018-04-15T15:14:33.573Z,17.70
2018-04-15T15:17:01.586Z,17.70
2018-04-15T15:19:29.507Z,17.70
2018-04-15T15:21:58.064Z,17.70
2018-04-15T15:24:26.443Z,17.70
2018-04-15T15:26:55.015Z,17.70
2018-04-15T15:29:22.741Z,17.70
2018-04-15T15:31:50.753Z,17.70
2018-04-15T15:34:18.836Z,17.60
2018-04-15T15:36:46.836Z,17.60
2018-04-15T15:39:15.957Z,17.70
2018-04-15T15:41:44.320Z,17.70
2018-04-15T15:44:12.577Z,17.70
2018-04-15T15:46:41.263Z,17.80
2018-04-15T15:49:10.040Z,17.80
2018-04-15T15:51:38.224Z,17.70
2018-04-15T15:54:06.707Z,17.80
2018-04-15T15:56:34.321Z,17.80
2018-04-15T15:59:02.243Z,17.80
2018-04-15T16:01:31.205Z,17.80
2018-04-15T16:04:00.315Z,17.80
2018-04-15T16:06:28.490Z,17.80
2018-04-15T16:08:56.614Z,17.80
2018-04-15T16:11:24.495Z,17.70
2018-04-15T16:13:52.578Z,17.70
2018-04-15T16:16:20.398Z,17.60
2018-04-15T16:18:48.237Z,17.60
2018-04-15T16:21:16.566Z,17.60
2018-04-15T16:23:45.157Z,17.70
2018-04-15T16:26:13.701Z,17.60
2018-04-15T16:28:42.103Z,17.60
2018-04-15T16:31:10.687Z,17.50
2018-04-15T16:33:39.089Z,17.40
2018-04-15T16:36:08.212Z,17.40
2018-04-15T16:38:37.594Z,17.30
2018-04-15T16:41:06.013Z,17.30
2018-04-15T16:43:33.988Z,17.30
2018-04-15T16:46:02.146Z,17.20
2018-04-15T16:48:30.458Z,17.20
2018-04-15T16:50:58.669Z,17.20
2018-04-15T16:53:26.901Z,17.20
2018-04-15T16:55:55.079Z,17.10
2018-04-15T16:58:23.681Z,17.10
2018-04-15T17:00:51.630Z,17.10
2018-04-15T17:03:19.947Z,17.10
2018-04-15T17:05:48.021Z,17.10
2018-04-15T17:08:16.354Z,17.00
2018-04-15T17:10:44.449Z,17.00
2018-04-15T17:13:12.851Z,17.00
2018-04-15T17:15:41.562Z,17.00
2018-04-15T17:18:10.099Z,16.90
2018-04-15T17:20:38.768Z,16.90
2018-04-15T17:23:07.295Z,16.90
2018-04-15T17:25:36.939Z,16.90
2018-04-15T17:28:05.660Z,16.80
2018-04-15T17:30:34.567Z,16.80
2018-04-15T17:33:03.321Z,16.80
2018-04-15T17:35:31.931Z,16.70
2018-04-15T17:38:00.641Z,16.70
2018-04-15T17:40:29.245Z,16.70
2018-04-15T17:42:57.983Z,16.60
2018-04-15T17:45:27.593Z,16.60
2018-04-15T17:47:57.190Z,16.60
2018-04-15T17:50:26.497Z,16.50
2018-04-15T17:52:55.824Z,16.50
2018-04-15T17:55:24.443Z,16.40
2018-04-15T17:57:53.948Z,16.40
2018-04-15T18:00:22.518Z,16.40
2018-04-15T18:02:50.957Z,16.40
2018-04-15T18:05:19.636Z,16.30
2018-04-15T18:07:50.009Z,16.30
2018-04-15T18:10:18.318Z,16.20
2018-04-15T18:12:46.766Z,16.20
2018-04-15T18:15:15.447Z,16.20
2018-04-15T18:17:43.762Z,16.10
2018-04-15T18:20:12.326Z,16.10
2018-04-15T18:22:41.672Z,16.00
2018-04-15T18:25:10.156Z,15.90
2018-04-15T18:27:39.030Z,15.90
2018-04-15T18:30:07.689Z,15.90
2018-04-15T18:32:36.383Z,15.80
2018-04-15T18:35:05.192Z,15.70
2018-04-15T18:37:34.722Z,15.60
2018-04-15T18:40:03.574Z,15.60
2018-04-15T18:42:32.313Z,15.50
2018-04-15T18:45:00.821Z,15.50
2018-04-15T18:47:29.674Z,15.40
2018-04-15T18:49:59.709Z,15.40
2018-04-15T18:52:28.294Z,15.30
2018-04-15T18:54:57.059Z,15.30
2018-04-15T18:57:26.398Z,15.20
2018-04-15T18:59:54.989Z,15.20
2018-04-15T19:02:23.498Z,15.10
2018-04-15T19:04:52.122Z,15.10
2018-04-15T19:07:20.558Z,15.10
2018-04-15T19:09:49.392Z,15.00
2018-04-15T19:12:17.882Z,15.00
2018-04-15T19:14:46.385Z,15.00
2018-04-15T19:17:15.612Z,14.90
2018-04-15T19:19:45.122Z,15.00
2018-04-15T19:22:13.731Z,14.90
2018-04-15T19:24:43.247Z,15.00
2018-04-15T19:27:12.519Z,15.00
2018-04-15T19:29:41.948Z,15.00
2018-04-15T19:32:10.574Z,14.90
2018-04-15T19:34:39.116Z,15.00
2018-04-15T19:37:07.684Z,14.90
2018-04-15T19:39:36.179Z,14.90
2018-04-15T19:42:04.681Z,14.90
2018-04-15T19:44:33.255Z,14.90
2018-04-15T19:47:01.832Z,14.90
2018-04-15T19:49:30.537Z,14.80
2018-04-15T19:51:59.191Z,14.70
2018-04-15T19:54:27.765Z,14.70
2018-04-15T19:56:56.878Z,14.50
2018-04-15T19:59:26.233Z,14.40
2018-04-15T20:01:55.671Z,14.40
2018-04-15T20:04:24.399Z,14.40
2018-04-15T20:06:52.900Z,14.30
2018-04-15T20:09:22.301Z,14.00
2018-04-15T20:11:50.640Z,14.00
2018-04-15T20:14:19.332Z,14.00
2018-04-15T20:16:47.841Z,14.00
2018-04-15T20:19:16.389Z,14.00
2018-04-15T20:21:45.771Z,13.90
2018-04-15T20:24:14.327Z,13.90
2018-04-15T20:26:43.748Z,13.90
2018-04-15T20:29:13.145Z,13.80
2018-04-15T20:31:41.605Z,13.80
2018-04-15T20:34:11.370Z,13.70
2018-04-15T20:36:40.060Z,13.70
2018-04-15T20:39:08.488Z,13.70
2018-04-15T20:41:37.045Z,13.70
2018-04-15T20:44:05.567Z,13.80
2018-04-15T20:46:34.130Z,13.70
2018-04-15T20:49:03.367Z,13.70
2018-04-15T20:51:31.947Z,13.70
2018-04-15T20:54:01.247Z,13.70
2018-04-15T20:56:30.602Z,13.60
2018-04-15T20:58:59.026Z,13.60
2018-04-15T21:01:27.379Z,13.60
2018-04-15T21:03:56.194Z,13.60
2018-04-15T21:06:25.442Z,13.50
2018-04-15T21:08:53.884Z,13.50
2018-04-15T21:11:22.897Z,13.50
2018-04-15T21:13:51.288Z,13.50
2018-04-15T21:16:19.523Z,13.50
2018-04-15T21:18:48.205Z,13.50
2018-04-15T21:21:17.393Z,13.60
2018-04-15T21:23:45.775Z,13.60
2018-04-15T21:26:14.892Z,13.70
2018-04-15T21:28:43.013Z,13.60
2018-04-15T21:31:12.452Z,13.70
2018-04-15T21:33:40.759Z,13.70
2018-04-15T21:36:08.887Z,13.70
2018-04-15T21:38:38.106Z,13.70
2018-04-15T21:41:07.195Z,13.70
2018-04-15T21:43:35.004Z,13.70
2018-04-15T21:46:03.628Z,13.60
2018-04-15T21:48:32.062Z,13.60
2018-04-15T21:51:00.431Z,13.70
2018-04-15T21:53:28.917Z,13.60
2018-04-15T21:55:56.552Z,13.60
2018-04-15T21:58:24.397Z,13.60
2018-04-15T22:00:52.612Z,13.60
2018-04-15T22:03:20.320Z,13.50
2018-04-15T22:05:47.895Z,13.40
2018-04-15T22:08:15.464Z,13.40
2018-04-15T22:10:43.009Z,13.50
2018-04-15T22:13:10.650Z,13.40
2018-04-15T22:15:38.996Z,13.40
2018-04-15T22:18:06.587Z,13.40
2018-04-15T22:20:34.928Z,13.40
2018-04-15T22:23:03.218Z,13.40
2018-04-15T22:25:30.790Z,13.40
2018-04-15T22:27:58.326Z,13.40
2018-04-15T22:30:25.899Z,13.30
2018-04-15T22:32:53.423Z,13.30
2018-04-15T22:35:20.989Z,13.30
2018-04-15T22:37:48.524Z,13.30
2018-04-15T22:40:16.063Z,13.30
2018-04-15T22:42:44.379Z,13.30
2018-04-15T22:45:11.905Z,13.30
2018-04-15T22:47:45.211Z,13.40
2018-04-15T22:50:17.692Z,13.40
2018-04-15T22:52:45.269Z,13.30
2018-04-15T22:55:12.802Z,13.30
2018-04-15T22:57:40.369Z,13.30
2018-04-15T23:00:07.926Z,13.30
2018-04-15T23:02:35.471Z,13.30
2018-04-15T23:05:03.030Z,13.10
2018-04-15T23:07:30.589Z,12.90
2018-04-15T23:09:58.162Z,13.00
2018-04-15T23:12:25.680Z,13.00
2018-04-15T23:14:53.220Z,13.00
2018-04-15T23:17:20.773Z,13.00
2018-04-15T23:19:49.112Z,13.00
2018-04-15T23:22:16.654Z,13.00
2018-04-15T23:24:44.992Z,13.10
2018-04-15T23:27:12.539Z,13.10
2018-04-15T23:29:40.083Z,13.10
2018-04-15T23:32:07.653Z,13.10
2018-04-15T23:34:35.188Z,13.10
2018-04-15T23:37:02.732Z,13.10
2018-04-15T23:39:31.065Z,13.00
2018-04-15T23:41:58.630Z,13.00
2018-04-15T23:44:26.160Z,13.00
2018-04-15T23:46:53.694Z,13.00
2018-04-15T23:49:21.240Z,13.00
2018-04-15T23:51:49.537Z,13.00
2018-04-15T23:54:17.107Z,13.00
2018-04-15T23:56:50.394Z,13.00
2018-04-15T23:59:17.965Z,13.00
